Bookmark and Share
Track history (hours):
 

Solidarnosc (vanuatu)

Last reported at 2014-Apr-21 13:29 UTC. Time now 2014-Apr-24 09:23 UTC.
Position N 50°09' W 002°01'.

Length 229 m; beam 32 m.

Type: Ship. MMSI: 576005000.

NotesDate/timePositionNaut miles runAvg speedWind from/ knotsBaromVisibWave heightAir tempDewpointWater temp
2014-Apr-21 13:29N 50°09' W 002°01'1010.2
2014-Apr-21 12:33N 50°11' W 001°47'10 9.7
2014-Apr-21 11:33N 50°14' W 001°32'1010.2
2014-Apr-21 10:34N 50°17' W 001°17'1211.6
2014-Apr-21 09:34N 50°20' W 000°60'1313.3
2014-Apr-21 08:34N 50°24' W 000°39'1414.1
2014-Apr-21 07:33N 50°27' W 000°18'1414.2
2014-Apr-21 06:33N 50°32' E 000°03'1413.8
2014-Apr-21 05:33N 50°35' E 000°24'1312.9
2014-Apr-21 04:33N 50°41' E 000°42'1211.9
2014-Apr-21 03:33N 50°48' E 000°57'1111.3
2014-Apr-21 02:33N 50°56' E 001°11'1111.5
2014-Apr-21 01:33N 51°03' E 001°25'1413.7
2014-Apr-21 00:33N 51°11' E 001°42'1515.2
2014-Apr-20 23:34N 51°24' E 001°55'1414.2
2014-Apr-20 22:34N 51°36' E 002°09'1313.4
2014-Apr-20 21:33N 51°45' E 002°24'1312.1
2014-Apr-20 20:29N 51°57' E 002°33'2110.9
2014-Apr-20 18:33N 52°17' E 002°43'1510.9
2014-Apr-20 17:12N 52°30' E 002°54'4912.5
2014-Apr-20 13:18N 53°15' E 003°26'1013.4
2014-Apr-20 12:33N 53°25' E 003°31'1313.2
2014-Apr-20 11:32N 53°38' E 003°38'1212.0
2014-Apr-20 10:33N 53°47' E 003°50'31612.7
2014-Apr-19 09:33N 57°47' E 009°57'1312.5
2014-Apr-19 08:33N 57°48' E 010°21'1212.2
2014-Apr-19 07:33N 57°48' E 010°44'1212.4
2014-Apr-19 06:33N 57°43' E 011°05'1312.7
2014-Apr-19 05:33N 57°38' E 011°27'8 7.8
2014-Apr-19 04:32N 57°35' E 011°40'0 0.0
2014-Apr-19 03:32N 57°35' E 011°40'0 0.0
2014-Apr-19 02:32N 57°35' E 011°40'0 0.0
2014-Apr-19 01:33N 57°35' E 011°40'2 2.1
2014-Apr-19 00:33N 57°33' E 011°38'1211.8
2014-Apr-18 23:33N 57°22' E 011°36'1312.5
2014-Apr-18 22:33N 57°09' E 011°38'1312.6
2014-Apr-18 21:32N 56°57' E 011°46'1212.2
2014-Apr-18 20:32N 56°46' E 011°54'1212.1
2014-Apr-18 19:33N 56°34' E 011°58'1212.1
2014-Apr-18 18:33N 56°22' E 012°03'1212.0
2014-Apr-18 17:33N 56°13' E 012°17'1212.3
2014-Apr-18 16:33N 56°06' E 012°35'1211.9
2014-Apr-18 15:33N 55°55' E 012°44'1211.8
2014-Apr-18 14:33N 55°44' E 012°51'8 8.0
2014-Apr-18 13:33N 55°36' E 012°52'10 9.6
2014-Apr-18 12:33N 55°28' E 012°43'1010.4
2014-Apr-18 11:33N 55°18' E 012°44'1312.9
2014-Apr-18 10:33N 55°16' E 013°07'1313.3
2014-Apr-18 09:33N 55°15' E 013°30'1413.7
2014-Apr-18 08:33N 55°14' E 013°54'1313.4
2014-Apr-18 07:34N 55°14' E 014°17'1413.7
2014-Apr-18 06:34N 55°24' E 014°33'1312.5
2014-Apr-18 05:33N 55°25' E 014°55'1312.9
2014-Apr-18 04:33N 55°23' E 015°18'1313.0
2014-Apr-18 03:33N 55°21' E 015°40'6813.2
2014-Apr-17 22:25N 55°08' E 017°37'1213.5
2014-Apr-17 21:33N 55°04' E 017°56'1313.4
2014-Apr-17 20:33N 55°00' E 018°18'1313.3
2014-Apr-17 19:33N 54°55' E 018°39'1413.6
2014-Apr-17 18:33N 54°46' E 018°58'1313.5
2014-Apr-17 17:33N 54°34' E 018°51'8 8.2
2014-Apr-17 16:32N 54°28' E 018°40'0 0.0
2014-Apr-17 15:32N 54°28' E 018°40'0 0.2
2014-Apr-17 14:32N 54°28' E 018°40'0 0.0
2014-Apr-17 13:32N 54°28' E 018°40'0 0.1
2014-Apr-17 12:32N 54°28' E 018°40'0 0.0
2014-Apr-17 11:32N 54°28' E 018°40'0 0.0
2014-Apr-17 10:32N 54°28' E 018°40'0 0.0
2014-Apr-17 09:32N 54°28' E 018°40'0 0.0
2014-Apr-17 08:32N 54°28' E 018°40'0 0.0
2014-Apr-17 07:32N 54°28' E 018°40'0 0.0
2014-Apr-17 05:32N 54°28' E 018°40'0 0.0
2014-Apr-17 04:32N 54°28' E 018°40'0 0.0
2014-Apr-17 03:32N 54°28' E 018°40'0 0.1
2014-Apr-17 02:32N 54°28' E 018°40'0 0.0
2014-Apr-17 01:32N 54°28' E 018°40'0 0.0
2014-Apr-17 00:32N 54°28' E 018°40'0 0.0
2014-Apr-16 23:32N 54°28' E 018°40'0 0.0
2014-Apr-16 22:32N 54°28' E 018°40'0 0.1
2014-Apr-16 21:33N 54°28' E 018°40'0 0.2
2014-Apr-16 20:33N 54°28' E 018°40'0 0.1
2014-Apr-16 19:33N 54°28' E 018°40'0 0.0
2014-Apr-16 18:33N 54°28' E 018°40'0 0.0
2014-Apr-16 17:33N 54°28' E 018°40'0 0.0
2014-Apr-16 16:33N 54°28' E 018°40'0 0.0
2014-Apr-16 15:33N 54°28' E 018°40'0 0.0
2014-Apr-16 14:33N 54°28' E 018°40'0 0.0
2014-Apr-16 13:33N 54°28' E 018°40'0 0.0
2014-Apr-16 12:33N 54°28' E 018°40'0 0.0
2014-Apr-16 11:33N 54°28' E 018°40'0 0.0
2014-Apr-16 10:33N 54°28' E 018°40'0 0.0
2014-Apr-16 09:33N 54°28' E 018°40'0 0.0
2014-Apr-16 08:33N 54°28' E 018°40'0 0.0
2014-Apr-16 07:33N 54°28' E 018°40'0 0.0
2014-Apr-16 06:33N 54°28' E 018°40'0 0.0
2014-Apr-16 05:33N 54°28' E 018°40'0 0.0
2014-Apr-16 04:33N 54°28' E 018°40'0 0.0
2014-Apr-16 03:33N 54°28' E 018°40'0 0.0
2014-Apr-16 02:33N 54°28' E 018°40'0 0.0
2014-Apr-16 01:33N 54°28' E 018°40'0 0.0
2014-Apr-16 00:33N 54°28' E 018°40'0 0.0
2014-Apr-15 23:33N 54°28' E 018°40'0 0.0
2014-Apr-15 22:33N 54°28' E 018°40'0 0.0
2014-Apr-15 21:33N 54°28' E 018°40'0 0.0
2014-Apr-15 20:33N 54°28' E 018°40'0 0.0
2014-Apr-15 19:33N 54°28' E 018°40'0 0.0
2014-Apr-15 18:33N 54°28' E 018°40'0 0.0
2014-Apr-15 17:33N 54°28' E 018°40'0 0.0
2014-Apr-15 16:33N 54°28' E 018°40'0 0.0
2014-Apr-15 15:33N 54°28' E 018°40'0 0.0
2014-Apr-15 14:33N 54°28' E 018°40'0 0.0
2014-Apr-15 12:34N 54°28' E 018°40'0 0.0
2014-Apr-15 11:34N 54°28' E 018°40'0 0.0
2014-Apr-15 10:34N 54°28' E 018°40'0 0.0
2014-Apr-15 09:34N 54°28' E 018°40'0 0.0
2014-Apr-15 08:34N 54°28' E 018°40'0 0.0
2014-Apr-15 07:34N 54°28' E 018°40'0 0.1
2014-Apr-15 06:34N 54°28' E 018°40'0 0.0
2014-Apr-15 05:34N 54°28' E 018°40'0 0.0
2014-Apr-15 03:34N 54°28' E 018°40'0 0.0
2014-Apr-15 02:33N 54°28' E 018°40'0 0.0
2014-Apr-15 01:34N 54°28' E 018°40'0 0.0
2014-Apr-15 00:34N 54°28' E 018°40'0 0.0
2014-Apr-14 23:34N 54°28' E 018°40'0 0.0
2014-Apr-14 22:34N 54°28' E 018°40'0 0.0
2014-Apr-14 21:34N 54°28' E 018°40'0 0.0
2014-Apr-14 20:34N 54°28' E 018°40'0 0.0
2014-Apr-14 19:33N 54°28' E 018°40'0 0.0
2014-Apr-14 18:33N 54°28' E 018°40'0 0.0
2014-Apr-14 17:34N 54°28' E 018°40'0 0.0
2014-Apr-14 16:33N 54°28' E 018°40'2 2.4
2014-Apr-14 15:34N 54°28' E 018°44'4 3.6
2014-Apr-14 14:34N 54°26' E 018°39'3 3.1
2014-Apr-14 13:32N 54°23' E 018°40'0 0.1
2014-Apr-14 11:32N 54°22' E 018°40'0 0.0
2014-Apr-14 10:32N 54°22' E 018°40'0 0.0
2014-Apr-14 09:32N 54°23' E 018°40'0 0.0
2014-Apr-14 08:32N 54°23' E 018°40'0 0.0
2014-Apr-14 06:31N 54°23' E 018°40'0 0.0
2014-Apr-14 05:31N 54°22' E 018°40'0 0.0
2014-Apr-13 22:31N 54°23' E 018°40'0 0.0
2014-Apr-13 21:31N 54°23' E 018°40'0 0.0
2014-Apr-13 20:31N 54°22' E 018°40'0 0.0
2014-Apr-13 19:29N 54°23' E 018°40'0 0.0
2014-Apr-13 18:28N 54°23' E 018°40'0 0.0
2014-Apr-13 17:31N 54°22' E 018°40'0 0.0
2014-Apr-13 16:31N 54°23' E 018°40'0 0.0
2014-Apr-13 15:31N 54°22' E 018°40'0 0.0
2014-Apr-13 14:31N 54°22' E 018°40'0 0.0
2014-Apr-13 13:31N 54°22' E 018°40'0 0.0
2014-Apr-13 12:32N 54°22' E 018°40'0 0.0
2014-Apr-13 11:32N 54°23' E 018°40'0 0.0
2014-Apr-13 10:32N 54°22' E 018°40'0 0.0
2014-Apr-13 09:32N 54°23' E 018°40'0 0.0
2014-Apr-13 08:31N 54°22' E 018°40'0 0.0
2014-Apr-13 07:32N 54°22' E 018°40'0 0.0
2014-Apr-13 06:31N 54°22' E 018°40'0 0.0
2014-Apr-13 05:31N 54°22' E 018°40'0 0.0
2014-Apr-13 04:31N 54°22' E 018°40'0 0.0
2014-Apr-13 03:31N 54°23' E 018°40'0 0.0
2014-Apr-13 02:31N 54°22' E 018°40'0 0.0
2014-Apr-13 01:31N 54°22' E 018°40'0 0.0
2014-Apr-13 00:31N 54°22' E 018°40'0 0.0
2014-Apr-12 23:31N 54°23' E 018°40'0 0.0
2014-Apr-12 22:31N 54°22' E 018°40'0 0.0
2014-Apr-12 21:31N 54°23' E 018°40'0 0.0
2014-Apr-12 20:32N 54°22' E 018°40'0 0.0
2014-Apr-12 19:31N 54°22' E 018°40'0 0.0
2014-Apr-12 18:28N 54°23' E 018°40'0 0.0
2014-Apr-12 17:31N 54°23' E 018°40'0 0.0
2014-Apr-12 16:32N 54°22' E 018°40'0 0.0
2014-Apr-12 15:31N 54°23' E 018°40'0 0.0
2014-Apr-12 14:31N 54°22' E 018°40'0 0.0
2014-Apr-12 13:31N 54°22' E 018°40'0 0.0
2014-Apr-12 12:31N 54°22' E 018°40'0 0.0
2014-Apr-12 11:33N 54°23' E 018°40'0 0.0
2014-Apr-12 10:33N 54°23' E 018°40'0 0.0
2014-Apr-12 09:33N 54°23' E 018°40'0 0.0
2014-Apr-12 08:33N 54°22' E 018°40'0 0.0
2014-Apr-12 07:33N 54°22' E 018°40'0 0.0
2014-Apr-12 06:33N 54°23' E 018°40'0 0.0
2014-Apr-12 05:30N 54°22' E 018°40'0 0.0
2014-Apr-12 04:33N 54°23' E 018°40'0 0.0
2014-Apr-12 03:33N 54°23' E 018°40'0 0.0
2014-Apr-12 02:33N 54°23' E 018°40'0 0.0
2014-Apr-12 01:33N 54°23' E 018°40'0 0.0
2014-Apr-12 00:33N 54°23' E 018°40'0 0.0
2014-Apr-11 23:33N 54°23' E 018°40'0 0.0
2014-Apr-11 22:33N 54°23' E 018°40'0 0.0
2014-Apr-11 21:33N 54°23' E 018°40'0 0.0
2014-Apr-11 20:33N 54°23' E 018°40'0 0.0
2014-Apr-11 19:33N 54°23' E 018°40'0 0.0
2014-Apr-11 18:33N 54°22' E 018°40'0 0.0
2014-Apr-11 17:33N 54°23' E 018°40'0 0.0
2014-Apr-11 16:33N 54°22' E 018°40'0 0.0
2014-Apr-11 15:33N 54°22' E 018°40'0 0.0
2014-Apr-11 14:30N 54°22' E 018°40'0 0.0
2014-Apr-11 13:33N 54°22' E 018°40'  

Dump ship's entire track history

sailing weather and tide predictions

Solidarnosc (vanuatu) — YJZC9 — position and weather